Time;durP1;ratioP1;P1;durP2;ratioP2;P2;SDS_P1;SDS_P2;PMS_P1;PMS_P2;Temp;Humidity;BMP_temperature;BMP_pressure;BME280_temperature;BME280_humidity;BME280_pressure;Samples;Min_cycle;Max_cycle;Signal;HPM_P1;HPM_P2
2023/05/02 00:00:32;;;;;;;9.73;5.10;;;10.50;1.00;;;;;;4970683;28;20755;-53
2023/05/02 00:02:59;;;;;;;13.00;6.00;;;10.50;1.00;;;;;;4969519;28;20384;-53
2023/05/02 00:05:25;;;;;;;11.30;5.60;;;10.50;1.00;;;;;;4970282;28;20396;-53
2023/05/02 00:07:51;;;;;;;10.07;4.87;;;10.40;1.00;;;;;;4969746;28;20362;-53
2023/05/02 00:10:17;;;;;;;10.25;5.40;;;10.30;1.00;;;;;;4970524;28;20415;-53
2023/05/02 00:12:43;;;;;;;9.02;4.80;;;10.20;1.00;;;;;;4969679;28;20453;-54
2023/05/02 00:15:09;;;;;;;12.70;5.80;;;10.30;1.00;;;;;;4951161;28;20409;-53
2023/05/02 00:17:35;;;;;;;12.75;6.40;;;10.20;1.00;;;;;;4950780;29;20872;-54
2023/05/02 00:20:03;;;;;;;11.50;6.05;;;10.10;1.00;;;;;;4965542;28;20483;-53
2023/05/02 00:22:29;;;;;;;9.77;5.22;;;10.10;1.00;;;;;;4969919;28;20870;-53
2023/05/02 00:24:58;;;;;;;11.60;5.88;;;10.20;1.00;;;;;;4969180;28;20504;-54
2023/05/02 00:27:24;;;;;;;10.18;5.20;;;10.20;1.00;;;;;;4969343;28;20809;-53
2023/05/02 00:29:51;;;;;;;11.95;6.10;;;10.20;1.00;;;;;;4968631;28;20501;-54
2023/05/02 00:32:17;;;;;;;10.80;5.47;;;10.20;1.00;;;;;;4964415;28;20399;-53
2023/05/02 00:34:43;;;;;;;12.70;6.45;;;10.10;1.00;;;;;;4969406;28;20483;-54
2023/05/02 00:37:08;;;;;;;11.70;6.18;;;10.20;1.00;;;;;;4969862;28;20512;-53
2023/05/02 00:39:34;;;;;;;12.00;5.90;;;10.20;1.00;;;;;;4969635;28;20459;-53
2023/05/02 00:42:00;;;;;;;12.07;5.93;;;10.20;1.00;;;;;;4969337;28;20902;-53
2023/05/02 00:44:27;;;;;;;11.32;5.80;;;10.20;1.00;;;;;;4969988;28;20408;-53
2023/05/02 00:46:53;;;;;;;11.20;5.40;;;10.20;1.00;;;;;;4968726;28;20472;-53
2023/05/02 00:49:19;;;;;;;11.97;5.73;;;10.10;1.00;;;;;;4970622;28;20929;-53
2023/05/02 00:51:45;;;;;;;10.07;4.82;;;10.10;1.00;;;;;;4972198;28;20401;-54
2023/05/02 00:54:12;;;;;;;9.90;5.50;;;10.10;1.00;;;;;;4972851;28;20456;-53
2023/05/02 00:56:38;;;;;;;10.95;5.75;;;10.10;1.00;;;;;;4972313;28;20412;-54
2023/05/02 00:59:09;;;;;;;10.38;5.05;;;10.30;1.00;;;;;;4973366;28;20434;-53
2023/05/02 01:02:08;;;;;;;11.82;5.50;;;10.20;1.00;;;;;;4972228;28;20439;-54
2023/05/02 01:04:41;;;;;;;10.55;5.70;;;10.20;1.00;;;;;;4973367;28;20581;-53
2023/05/02 01:07:35;;;;;;;11.25;5.63;;;10.20;1.00;;;;;;4972818;28;20446;-54
2023/05/02 01:10:22;;;;;;;12.60;6.00;;;10.20;1.00;;;;;;4972475;28;20786;-53
2023/05/02 01:12:59;;;;;;;11.50;5.50;;;10.20;1.00;;;;;;4972458;28;20466;-54
2023/05/02 01:15:25;;;;;;;11.85;5.90;;;10.10;1.00;;;;;;4972586;28;20886;-53
2023/05/02 01:17:53;;;;;;;11.73;6.43;;;10.10;1.00;;;;;;4971875;28;20444;-54
2023/05/02 01:20:22;;;;;;;12.10;6.20;;;10.10;1.00;;;;;;4972605;28;20431;-53
2023/05/02 01:22:49;;;;;;;12.35;7.18;;;10.00;1.00;;;;;;4972263;28;20890;-54
2023/05/02 01:25:42;;;;;;;12.07;5.57;;;9.90;1.00;;;;;;4972486;28;20889;-53
2023/05/02 01:28:16;;;;;;;11.63;5.80;;;9.90;1.00;;;;;;4970242;28;20466;-53
2023/05/02 01:30:44;;;;;;;11.43;5.35;;;9.90;1.00;;;;;;4971810;28;20416;-54
2023/05/02 01:33:12;;;;;;;9.93;5.30;;;9.90;1.00;;;;;;4972846;28;20393;-53
2023/05/02 01:35:41;;;;;;;11.77;5.50;;;9.90;1.00;;;;;;4971720;28;20419;-54
2023/05/02 01:38:07;;;;;;;11.18;5.57;;;9.90;1.00;;;;;;4972324;28;20511;-53
2023/05/02 01:40:35;;;;;;;12.20;5.80;;;9.90;1.00;;;;;;4972199;28;20495;-54
2023/05/02 01:43:04;;;;;;;11.30;5.70;;;9.90;1.00;;;;;;4972330;28;20397;-53
2023/05/02 01:45:33;;;;;;;11.20;5.40;;;10.00;1.00;;;;;;4971960;28;20401;-54
2023/05/02 01:48:00;;;;;;;12.07;6.10;;;9.90;1.00;;;;;;4971269;28;20401;-54
2023/05/02 01:50:27;;;;;;;10.52;5.68;;;10.10;1.00;;;;;;4972661;28;20380;-53
2023/05/02 01:52:54;;;;;;;11.90;5.80;;;9.90;1.00;;;;;;4971231;28;20419;-54
2023/05/02 01:55:22;;;;;;;10.70;5.80;;;10.00;1.00;;;;;;4971393;28;20766;-54
2023/05/02 01:57:49;;;;;;;11.57;6.20;;;10.00;1.00;;;;;;4971433;28;20424;-54
2023/05/02 02:00:19;;;;;;;9.88;4.70;;;10.10;1.00;;;;;;4954036;28;20462;-53
2023/05/02 02:02:47;;;;;;;11.13;5.43;;;10.00;1.00;;;;;;4968237;28;20406;-53
2023/05/02 02:05:14;;;;;;;11.35;5.35;;;10.00;1.00;;;;;;4972122;28;20724;-54
2023/05/02 02:07:41;;;;;;;12.27;5.20;;;10.00;1.00;;;;;;4958745;28;20916;-54
2023/05/02 02:10:07;;;;;;;11.88;5.70;;;9.90;1.00;;;;;;4952798;29;20954;-53
2023/05/02 02:12:42;;;;;;;12.10;5.60;;;9.90;1.00;;;;;;4957369;28;20404;-53
2023/05/02 02:15:15;;;;;;;10.02;5.00;;;9.80;1.00;;;;;;4972101;28;20388;-53
2023/05/02 02:18:17;;;;;;;11.05;4.95;;;9.80;1.00;;;;;;4970456;28;20445;-53
2023/05/02 02:20:45;;;;;;;11.25;5.60;;;9.80;1.00;;;;;;4951958;28;20400;-54
2023/05/02 02:23:13;;;;;;;10.90;5.40;;;9.70;1.00;;;;;;4971939;28;20459;-53
2023/05/02 02:25:39;;;;;;;13.10;6.18;;;9.60;1.00;;;;;;4969248;28;20408;-54
2023/05/02 02:28:06;;;;;;;12.57;6.20;;;9.70;1.00;;;;;;4971006;28;20450;-54
2023/05/02 02:30:32;;;;;;;12.82;5.85;;;10.80;1.00;;;;;;4970921;28;20435;-53
2023/05/02 02:32:57;;;;;;;11.40;5.13;;;9.50;1.00;;;;;;4961592;28;21019;-53
2023/05/02 02:35:30;;;;;;;11.57;5.50;;;9.50;1.00;;;;;;4969519;28;20399;-54
2023/05/02 02:38:06;;;;;;;11.38;5.20;;;9.50;1.00;;;;;;4963078;28;20428;-53
2023/05/02 02:40:54;;;;;;;12.48;5.93;;;9.50;1.00;;;;;;4971435;28;20400;-53
2023/05/02 02:43:32;;;;;;;10.80;5.00;;;9.50;1.00;;;;;;4965120;28;20396;-53
2023/05/02 02:46:13;;;;;;;11.57;5.60;;;9.40;1.00;;;;;;4970351;28;20396;-53
2023/05/02 02:49:12;;;;;;;10.77;5.22;;;9.30;1.00;;;;;;4970484;28;20419;-54
2023/05/02 02:51:45;;;;;;;12.48;5.70;;;9.30;1.00;;;;;;4957241;28;20408;-54
2023/05/02 02:54:42;;;;;;;13.02;5.78;;;9.30;1.00;;;;;;4971141;28;20396;-53
2023/05/02 02:57:16;;;;;;;10.95;5.43;;;9.30;1.00;;;;;;4970842;28;20408;-53
2023/05/02 02:59:50;;;;;;;10.80;5.33;;;9.40;1.00;;;;;;4969208;28;20914;-54
2023/05/02 03:02:18;;;;;;;9.82;5.22;;;9.40;1.00;;;;;;4964636;28;20439;-53
2023/05/02 03:04:46;;;;;;;10.60;5.28;;;9.40;1.00;;;;;;4970154;28;20427;-54
2023/05/02 03:07:12;;;;;;;12.38;6.05;;;9.40;1.00;;;;;;4970395;28;20793;-53
2023/05/02 03:09:42;;;;;;;10.70;5.60;;;10.50;1.00;;;;;;4970590;28;20423;-54
2023/05/02 03:12:08;;;;;;;12.00;6.20;;;9.50;1.00;;;;;;4970583;28;20431;-53
2023/05/02 03:14:35;;;;;;;11.67;5.77;;;9.50;1.00;;;;;;4971023;28;20502;-53
2023/05/02 03:17:00;;;;;;;10.63;5.70;;;9.50;1.00;;;;;;4970179;28;20471;-53
2023/05/02 03:19:26;;;;;;;11.10;6.13;;;9.70;1.00;;;;;;4970800;28;20794;-54
2023/05/02 03:21:51;;;;;;;11.13;6.22;;;9.60;1.00;;;;;;4970144;28;20399;-54
2023/05/02 03:24:17;;;;;;;11.70;6.20;;;9.70;1.00;;;;;;4970438;28;20419;-54
2023/05/02 03:26:43;;;;;;;11.47;6.00;;;9.80;1.00;;;;;;4969967;28;20471;-55
2023/05/02 03:29:08;;;;;;;13.60;6.15;;;9.80;1.00;;;;;;4970833;28;20404;-54
2023/05/02 03:31:34;;;;;;;11.73;6.33;;;9.80;1.00;;;;;;4970294;28;20555;-54
2023/05/02 03:33:59;;;;;;;12.50;6.10;;;9.80;1.00;;;;;;4970148;28;20383;-54
2023/05/02 03:36:26;;;;;;;12.98;6.55;;;9.80;1.00;;;;;;4971174;28;20479;-54
2023/05/02 03:38:51;;;;;;;12.15;6.22;;;9.90;1.00;;;;;;4962415;28;20419;-54
2023/05/02 03:41:19;;;;;;;12.73;6.00;;;9.90;1.00;;;;;;4970126;28;20404;-54
2023/05/02 03:43:45;;;;;;;12.27;6.25;;;9.90;1.00;;;;;;4970254;28;20407;-54
2023/05/02 03:46:11;;;;;;;14.02;6.75;;;10.00;1.00;;;;;;4970984;28;20380;-54
2023/05/02 03:48:37;;;;;;;13.68;7.10;;;10.20;1.00;;;;;;4970886;28;20402;-54
2023/05/02 03:51:04;;;;;;;12.23;6.47;;;10.30;1.00;;;;;;4968470;28;20396;-54
2023/05/02 03:53:30;;;;;;;12.70;6.40;;;10.30;1.00;;;;;;4970718;28;20427;-54
2023/05/02 03:55:56;;;;;;;14.23;6.75;;;10.30;1.00;;;;;;4970170;28;20554;-54
2023/05/02 03:58:22;;;;;;;13.93;6.78;;;10.40;1.00;;;;;;4971120;28;20428;-53
2023/05/02 04:00:48;;;;;;;14.02;7.00;;;10.50;1.00;;;;;;4969242;28;20435;-53
2023/05/02 04:03:13;;;;;;;12.90;6.47;;;10.50;1.00;;;;;;4970663;28;20531;-53
2023/05/02 04:05:39;;;;;;;11.63;6.07;;;10.60;1.00;;;;;;4970645;28;20854;-53
2023/05/02 04:08:05;;;;;;;11.40;6.30;;;10.60;1.00;;;;;;4970255;28;20815;-53
2023/05/02 04:10:30;;;;;;;11.90;6.03;;;10.60;1.00;;;;;;4963254;28;20394;-53
2023/05/02 04:12:56;;;;;;;11.57;6.53;;;10.70;1.00;;;;;;4969151;28;20396;-54
2023/05/02 04:15:22;;;;;;;14.07;6.70;;;12.00;1.00;;;;;;4966617;28;20416;-53
2023/05/02 04:17:47;;;;;;;12.48;7.03;;;10.70;1.00;;;;;;4968106;28;20490;-53
2023/05/02 04:20:14;;;;;;;15.10;7.60;;;10.70;1.00;;;;;;4970283;28;20754;-53
2023/05/02 04:22:40;;;;;;;14.90;7.30;;;10.70;1.00;;;;;;4950834;28;20897;-54
2023/05/02 04:25:06;;;;;;;14.32;6.95;;;10.50;1.00;;;;;;4957151;28;20421;-53
2023/05/02 04:27:32;;;;;;;15.13;8.07;;;10.50;1.00;;;;;;4974258;28;20408;-53
2023/05/02 04:29:57;;;;;;;15.10;7.40;;;10.50;1.00;;;;;;4973152;28;20527;-54
2023/05/02 04:32:23;;;;;;;25.70;9.57;;;10.50;1.00;;;;;;4974063;28;20402;-53
2023/05/02 04:34:49;;;;;;;15.20;7.90;;;10.60;1.00;;;;;;4972910;28;20396;-53
2023/05/02 04:37:15;;;;;;;19.40;8.98;;;10.50;1.00;;;;;;4955928;28;20412;-53
2023/05/02 04:39:41;;;;;;;16.48;7.53;;;10.50;1.00;;;;;;4963441;28;20467;-54
2023/05/02 04:42:06;;;;;;;20.13;8.43;;;10.50;1.00;;;;;;4967406;28;20443;-53
2023/05/02 04:44:32;;;;;;;14.93;7.27;;;10.50;1.00;;;;;;4956665;28;20738;-53
2023/05/02 04:46:57;;;;;;;14.05;7.07;;;10.60;1.00;;;;;;4969295;28;20502;-53
2023/05/02 04:49:23;;;;;;;15.80;8.00;;;10.70;1.00;;;;;;4959120;28;20439;-54
2023/05/02 04:51:50;;;;;;;14.52;8.00;;;10.70;1.00;;;;;;4962251;28;20419;-54
2023/05/02 04:54:16;;;;;;;14.02;7.25;;;10.70;1.00;;;;;;4963471;28;20922;-53
2023/05/02 04:56:42;;;;;;;12.93;7.40;;;10.80;1.00;;;;;;4966953;28;20404;-54
2023/05/02 04:59:08;;;;;;;13.35;6.95;;;9.60;1.00;;;;;;4961976;28;20479;-53
2023/05/02 05:01:34;;;;;;;15.23;7.30;;;10.90;1.00;;;;;;4961594;28;20589;-53
2023/05/02 05:04:00;;;;;;;13.70;7.30;;;10.90;1.00;;;;;;4961364;28;21004;-54
2023/05/02 05:06:26;;;;;;;13.52;6.68;;;11.00;1.00;;;;;;4965527;28;20441;-54
2023/05/02 05:08:52;;;;;;;13.10;7.00;;;11.00;1.00;;;;;;4964172;28;20404;-53
2023/05/02 05:11:17;;;;;;;12.32;6.63;;;10.90;1.00;;;;;;4965682;28;20445;-53
2023/05/02 05:13:43;;;;;;;14.80;7.50;;;11.00;1.00;;;;;;4959474;28;20406;-54
2023/05/02 05:16:08;;;;;;;12.27;6.60;;;11.00;1.00;;;;;;4966400;28;20545;-54
2023/05/02 05:18:40;;;;;;;16.42;8.07;;;10.00;1.00;;;;;;4953007;28;20899;-54
2023/05/02 05:21:07;;;;;;;14.07;7.68;;;11.10;1.00;;;;;;4953226;28;20405;-54
2023/05/02 05:23:33;;;;;;;13.80;7.15;;;11.30;1.00;;;;;;4953963;28;20406;-54
2023/05/02 05:26:09;;;;;;;13.65;7.30;;;11.30;1.00;;;;;;4956518;28;20412;-53
2023/05/02 05:28:34;;;;;;;12.15;6.90;;;11.50;1.00;;;;;;4960806;28;20982;-53
2023/05/02 05:31:07;;;;;;;15.67;6.70;;;11.50;1.00;;;;;;4952763;28;20497;-53
2023/05/02 05:33:34;;;;;;;12.65;7.15;;;11.60;1.00;;;;;;4953459;28;20402;-54
2023/05/02 05:36:07;;;;;;;12.98;6.90;;;11.60;1.00;;;;;;4954949;28;20704;-53
2023/05/02 05:38:33;;;;;;;12.80;6.70;;;11.80;1.00;;;;;;4960311;28;20464;-53
2023/05/02 05:40:59;;;;;;;14.23;6.97;;;11.90;99.90;;;;;;4967760;28;20428;-53
2023/05/02 05:43:25;;;;;;;14.30;7.03;;;11.80;99.90;;;;;;4969298;28;20487;-53
2023/05/02 05:45:54;;;;;;;13.70;6.50;;;11.80;99.90;;;;;;4960812;28;20892;-53
2023/05/02 05:48:20;;;;;;;12.65;6.50;;;11.90;99.90;;;;;;4971130;28;20830;-54
2023/05/02 05:50:45;;;;;;;12.52;7.00;;;11.90;99.90;;;;;;4953705;28;20428;-54
2023/05/02 05:53:12;;;;;;;11.50;7.00;;;12.10;99.90;;;;;;4953240;29;20390;-56
2023/05/02 05:55:38;;;;;;;14.57;6.80;;;12.20;99.90;;;;;;4956189;28;20412;-54
2023/05/02 05:58:04;;;;;;;16.90;8.02;;;12.40;99.90;;;;;;4967854;28;20426;-53
2023/05/02 06:00:33;;;;;;;15.75;6.97;;;12.90;1.00;;;;;;4962377;28;20907;-54
2023/05/02 06:02:58;;;;;;;12.73;6.57;;;13.50;1.00;;;;;;4962391;28;20404;-54
2023/05/02 06:05:24;;;;;;;12.70;6.57;;;13.40;1.00;;;;;;4960365;28;20482;-54
2023/05/02 06:07:50;;;;;;;12.37;6.60;;;13.20;99.90;;;;;;4966974;28;20419;-53
2023/05/02 06:10:15;;;;;;;13.30;7.18;;;12.80;99.90;;;;;;4963929;28;20412;-54
2023/05/02 06:12:41;;;;;;;14.40;7.43;;;12.80;99.90;;;;;;4959330;28;20454;-54
2023/05/02 06:15:07;;;;;;;13.48;7.38;;;12.30;1.00;;;;;;4957540;28;20887;-54
2023/05/02 06:17:33;;;;;;;13.55;6.88;;;12.80;99.90;;;;;;4966609;28;20427;-53
2023/05/02 06:19:58;;;;;;;13.40;6.83;;;12.60;99.90;;;;;;4959915;28;20760;-52
2023/05/02 06:22:24;;;;;;;14.98;7.80;;;12.60;1.00;;;;;;4957267;28;20420;-54
2023/05/02 06:24:49;;;;;;;12.97;7.43;;;12.70;80.10;;;;;;4953429;28;20899;-54
2023/05/02 06:27:15;;;;;;;16.63;7.60;;;12.80;99.90;;;;;;4954359;28;20454;-53
2023/05/02 06:29:41;;;;;;;13.18;6.78;;;12.90;99.90;;;;;;4956259;28;20457;-54
2023/05/02 06:32:06;;;;;;;17.00;8.10;;;12.90;99.90;;;;;;4952847;28;20405;-54
2023/05/02 06:34:32;;;;;;;16.67;7.80;;;13.00;99.90;;;;;;4965021;28;20380;-53
2023/05/02 06:36:58;;;;;;;13.18;7.07;;;12.90;99.90;;;;;;4961141;28;20400;-53
2023/05/02 06:39:24;;;;;;;15.63;8.30;;;12.80;99.90;;;;;;4961855;28;21082;-54
2023/05/02 06:41:49;;;;;;;19.08;8.52;;;12.80;1.00;;;;;;4953617;28;20410;-54
2023/05/02 06:44:15;;;;;;;15.00;8.13;;;12.70;1.00;;;;;;4960321;28;20429;-53
2023/05/02 06:46:41;;;;;;;14.63;7.90;;;12.80;1.00;;;;;;4967197;28;20412;-53
2023/05/02 06:49:07;;;;;;;17.08;8.90;;;12.60;99.90;;;;;;4956332;28;20800;-53
2023/05/02 06:51:32;;;;;;;18.17;9.32;;;13.00;52.30;;;;;;4954228;28;20489;-53
2023/05/02 06:53:58;;;;;;;17.37;9.00;;;12.50;99.90;;;;;;4966222;28;20870;-53
2023/05/02 06:56:25;;;;;;;17.20;9.33;;;12.40;1.00;;;;;;4959395;28;20412;-53
2023/05/02 06:58:51;;;;;;;16.67;8.90;;;12.60;99.90;;;;;;4966701;28;20436;-53
2023/05/02 07:01:17;;;;;;;18.23;9.30;;;12.50;99.90;;;;;;4969679;28;20412;-53
2023/05/02 07:03:42;;;;;;;19.13;9.05;;;12.60;99.90;;;;;;4970613;28;20412;-54
2023/05/02 07:06:08;;;;;;;17.93;9.27;;;12.60;99.90;;;;;;4958378;28;20398;-53
2023/05/02 07:08:34;;;;;;;15.85;8.77;;;12.60;99.90;;;;;;4958622;28;20678;-53
2023/05/02 07:11:01;;;;;;;19.90;10.67;;;12.60;99.90;;;;;;4956192;28;20425;-53
2023/05/02 07:13:27;;;;;;;18.35;9.60;;;12.50;30.10;;;;;;4965608;28;20404;-53
2023/05/02 07:15:53;;;;;;;21.67;11.30;;;12.60;1.00;;;;;;4963223;28;20828;-53
2023/05/02 07:18:18;;;;;;;21.92;11.05;;;12.70;99.50;;;;;;4958756;28;20531;-53
2023/05/02 07:20:44;;;;;;;21.03;11.30;;;12.70;99.90;;;;;;4959662;28;20887;-54
2023/05/02 07:23:10;;;;;;;21.08;10.85;;;12.60;99.90;;;;;;4963653;28;20500;-53
2023/05/02 07:25:36;;;;;;;23.70;11.97;;;12.70;99.90;;;;;;4951783;28;20408;-53
2023/05/02 07:28:01;;;;;;;23.98;12.38;;;12.60;99.90;;;;;;4955408;28;20897;-53
2023/05/02 07:30:27;;;;;;;21.10;10.82;;;12.70;99.90;;;;;;4958335;28;20869;-53
2023/05/02 07:32:53;;;;;;;20.05;11.40;;;12.70;99.90;;;;;;4955252;28;20458;-53
2023/05/02 07:35:18;;;;;;;22.67;12.50;;;12.70;1.00;;;;;;4960298;28;20925;-53
2023/05/02 07:37:44;;;;;;;20.67;11.50;;;12.80;1.00;;;;;;4966648;28;20494;-54
2023/05/02 07:40:10;;;;;;;23.63;12.73;;;12.80;99.90;;;;;;4956881;28;20399;-54
2023/05/02 07:42:35;;;;;;;22.13;12.55;;;12.70;99.90;;;;;;4957343;28;20422;-53
2023/05/02 07:45:01;;;;;;;25.25;13.23;;;12.90;1.00;;;;;;4954945;28;20408;-54
2023/05/02 07:47:28;;;;;;;25.27;12.73;;;13.20;99.90;;;;;;4965553;28;20885;-54
2023/05/02 07:49:54;;;;;;;24.00;12.32;;;13.50;99.90;;;;;;4966739;28;20543;-54
2023/05/02 07:52:20;;;;;;;21.98;12.13;;;13.70;99.90;;;;;;4954963;28;20725;-54
2023/05/02 07:54:49;;;;;;;25.48;12.85;;;13.30;99.90;;;;;;4963231;28;20859;-55
2023/05/02 07:57:15;;;;;;;22.38;11.95;;;13.40;32.30;;;;;;4963224;28;20485;-54
2023/05/02 07:59:41;;;;;;;26.35;12.98;;;13.40;1.00;;;;;;4963548;28;20413;-57
2023/05/02 08:02:07;;;;;;;25.38;13.52;;;13.60;1.00;;;;;;4970570;28;20885;-54
2023/05/02 08:04:33;;;;;;;29.45;12.70;;;13.60;1.00;;;;;;4968737;28;20521;-54
2023/05/02 08:06:59;;;;;;;24.15;13.40;;;13.60;1.00;;;;;;4973894;28;20388;-54
2023/05/02 08:09:25;;;;;;;25.90;12.65;;;13.50;99.90;;;;;;4959831;28;20406;-54
2023/05/02 08:11:51;;;;;;;25.83;13.93;;;13.60;1.00;;;;;;4961658;28;20418;-54
2023/05/02 08:14:17;;;;;;;26.83;14.45;;;13.60;1.00;;;;;;4964776;28;20426;-54
2023/05/02 08:16:43;;;;;;;24.80;14.20;;;13.70;99.90;;;;;;4962052;28;20412;-53
2023/05/02 08:19:09;;;;;;;27.67;14.80;;;13.70;1.00;;;;;;4959697;28;20428;-54
2023/05/02 08:21:35;;;;;;;25.15;14.52;;;13.80;99.90;;;;;;4971584;28;20540;-54
2023/05/02 08:24:01;;;;;;;31.95;15.38;;;13.80;99.90;;;;;;4972855;28;20412;-55
2023/05/02 08:26:27;;;;;;;29.43;14.63;;;13.80;99.90;;;;;;4967259;28;20873;-54
2023/05/02 08:28:53;;;;;;;28.60;14.35;;;13.90;1.00;;;;;;4968714;28;20843;-55
2023/05/02 08:31:20;;;;;;;26.97;14.10;;;13.90;1.00;;;;;;4944741;29;20430;-54
2023/05/02 08:33:46;;;;;;;27.67;14.80;;;14.30;1.00;;;;;;4962730;28;20394;-55
2023/05/02 08:36:13;;;;;;;24.35;13.15;;;14.70;99.90;;;;;;4964138;28;21032;-53
2023/05/02 08:38:38;;;;;;;27.45;14.05;;;15.20;99.90;;;;;;4956552;28;20429;-53
2023/05/02 08:41:18;;;;;;;27.63;14.40;;;15.50;1.00;;;;;;4972000;28;20408;-54
2023/05/02 08:43:45;;;;;;;27.17;13.90;;;15.60;99.90;;;;;;4969347;28;20462;-55
2023/05/02 08:46:12;;;;;;;26.00;13.45;;;15.70;99.90;;;;;;4970790;28;20403;-53
2023/05/02 08:48:40;;;;;;;28.35;14.15;;;15.50;99.90;;;;;;4958800;28;20414;-53
2023/05/02 08:51:11;;;;;;;26.50;14.38;;;15.80;99.90;;;;;;4962785;28;20867;-53
2023/05/02 08:53:39;;;;;;;26.67;15.43;;;15.90;99.90;;;;;;4965547;28;20435;-53
2023/05/02 08:56:09;;;;;;;28.55;15.32;;;15.90;99.90;;;;;;4954994;28;20487;-53
2023/05/02 08:58:36;;;;;;;27.55;14.32;;;15.60;99.90;;;;;;4967529;28;20965;-53
2023/05/02 09:01:09;;;;;;;26.23;14.18;;;15.40;99.90;;;;;;4972750;28;20543;-53
2023/05/02 09:03:35;;;;;;;25.65;13.38;;;15.30;99.90;;;;;;4958862;28;20395;-53
2023/05/02 09:06:03;;;;;;;27.65;14.65;;;15.60;99.90;;;;;;4969734;28;20487;-55
2023/05/02 09:08:29;;;;;;;26.48;14.52;;;15.90;99.90;;;;;;4967913;28;20407;-55
2023/05/02 09:10:55;;;;;;;30.37;15.50;;;15.70;99.90;;;;;;4963032;28;20787;-56
2023/05/02 09:13:29;;;;;;;24.83;14.32;;;15.60;99.90;;;;;;4972313;28;20420;-56
2023/05/02 09:16:04;;;;;;;25.60;14.85;;;16.00;99.90;;;;;;4961651;28;20408;-57
2023/05/02 09:18:36;;;;;;;28.42;16.10;;;17.10;99.90;;;;;;4971006;28;20898;-56
2023/05/02 09:21:10;;;;;;;23.90;13.48;;;18.00;33.90;;;;;;4969187;28;20412;-56
2023/05/02 09:23:40;;;;;;;24.88;13.63;;;18.00;1.00;;;;;;4966810;28;20890;-56
2023/05/02 09:26:15;;;;;;;27.13;15.20;;;18.00;1.00;;;;;;4966408;28;20403;-56
2023/05/02 09:28:48;;;;;;;30.23;15.07;;;17.20;1.00;;;;;;4969407;28;20990;-56
2023/05/02 09:31:22;;;;;;;24.83;14.27;;;17.30;1.00;;;;;;4972501;28;20396;-57
2023/05/02 09:33:48;;;;;;;27.08;15.77;;;17.20;1.00;;;;;;4971956;28;20428;-57
2023/05/02 09:36:16;;;;;;;30.70;14.45;;;17.20;1.00;;;;;;4972745;28;20388;-56
2023/05/02 09:38:43;;;;;;;25.67;14.70;;;16.70;1.00;;;;;;4972613;28;20434;-56
2023/05/02 09:41:09;;;;;;;25.55;14.65;;;17.20;1.00;;;;;;4971788;28;20396;-57
2023/05/02 09:43:35;;;;;;;26.53;14.10;;;18.40;1.00;;;;;;4972436;28;20805;-57
2023/05/02 09:46:03;;;;;;;22.50;13.57;;;;;;;;;;4972113;28;20443;-57
2023/05/02 09:48:30;;;;;;;24.70;14.50;;;;;;;;;;4972972;28;20392;-58
2023/05/02 09:50:56;;;;;;;23.10;13.80;;;22.60;99.90;;;;;;4971976;28;20865;-57
2023/05/02 09:53:26;;;;;;;27.07;15.13;;;22.20;99.90;;;;;;4972480;28;20397;-57
2023/05/02 09:56:01;;;;;;;23.63;15.38;;;22.60;99.90;;;;;;4971572;28;20471;-58
2023/05/02 09:58:26;;;;;;;26.00;14.98;;;22.50;99.90;;;;;;4970508;28;20456;-57
2023/05/02 10:00:52;;;;;;;26.75;15.35;;;21.80;99.90;;;;;;4964975;28;20444;-58
2023/05/02 10:03:18;;;;;;;22.75;13.90;;;21.00;99.90;;;;;;4947605;29;20855;-58
2023/05/02 10:05:45;;;;;;;27.40;16.13;;;21.60;99.90;;;;;;4951952;28;20453;-58
2023/05/02 10:08:12;;;;;;;23.27;13.82;;;22.00;99.90;;;;;;4958759;28;20388;-57
2023/05/02 10:10:44;;;;;;;24.83;15.02;;;22.50;99.90;;;;;;4966401;28;20467;-58
2023/05/02 10:13:13;;;;;;;22.80;15.15;;;22.60;99.90;;;;;;4966331;28;20396;-58
2023/05/02 10:15:43;;;;;;;22.58;14.30;;;22.50;99.90;;;;;;4968191;28;20478;-58
2023/05/02 10:18:17;;;;;;;25.57;13.73;;;21.70;99.90;;;;;;4970047;28;20420;-58
2023/05/02 10:20:52;;;;;;;22.17;13.20;;;21.30;99.90;;;;;;4970273;28;20917;-58
2023/05/02 10:23:18;;;;;;;22.85;13.98;;;21.60;99.90;;;;;;4956787;28;20404;-57
2023/05/02 10:25:45;;;;;;;27.45;14.15;;;21.80;99.90;;;;;;4963272;28;20927;-58
2023/05/02 10:28:11;;;;;;;21.88;13.38;;;22.00;99.90;;;;;;4960501;28;20502;-57
2023/05/02 10:30:39;;;;;;;22.95;13.02;;;21.80;99.90;;;;;;4969144;28;20409;-58
2023/05/02 10:33:05;;;;;;;21.17;12.60;;;21.30;99.90;;;;;;4969703;28;20749;-58
2023/05/02 10:35:31;;;;;;;19.23;10.90;;;21.60;99.90;;;;;;4955472;28;20404;-58
2023/05/02 10:37:59;;;;;;;20.63;12.45;;;21.40;99.90;;;;;;4964022;28;20424;-57
2023/05/02 10:40:25;;;;;;;23.50;13.23;;;21.00;99.90;;;;;;4974915;28;20388;-57
2023/05/02 10:42:52;;;;;;;19.45;11.93;;;20.70;99.90;;;;;;4969259;28;20396;-57
2023/05/02 10:45:31;;;;;;;20.17;11.55;;;20.70;99.90;;;;;;4970482;28;20885;-57
2023/05/02 10:48:17;;;;;;;21.48;11.90;;;20.30;99.90;;;;;;4953740;28;20400;-57
2023/05/02 10:50:51;;;;;;;22.88;11.75;;;19.50;99.90;;;;;;4971656;28;20941;-57
2023/05/02 10:53:31;;;;;;;21.88;12.32;;;19.00;99.90;;;;;;4971653;28;20384;-59
2023/05/02 10:56:20;;;;;;;23.67;11.82;;;18.60;99.90;;;;;;4970685;28;20866;-60
2023/05/02 10:58:47;;;;;;;22.33;13.65;;;18.90;99.90;;;;;;4970607;28;20427;-59
2023/05/02 11:01:29;;;;;;;24.42;13.88;;;18.80;99.90;;;;;;4971561;28;20538;-57
2023/05/02 11:03:57;;;;;;;24.67;13.45;;;18.30;99.90;;;;;;4952823;28;20396;-57
2023/05/02 11:06:33;;;;;;;23.75;13.65;;;18.30;99.90;;;;;;4970950;28;20655;-57
2023/05/02 11:09:17;;;;;;;24.35;13.57;;;18.60;99.90;;;;;;4970510;28;20884;-56
2023/05/02 11:11:44;;;;;;;24.98;14.85;;;18.50;99.90;;;;;;4971167;28;20446;-56
2023/05/02 11:14:11;;;;;;;26.02;13.55;;;18.60;99.90;;;;;;4963746;28;20510;-57
2023/05/02 11:16:56;;;;;;;28.67;14.90;;;18.60;99.90;;;;;;4970551;28;20396;-57
2023/05/02 11:19:21;;;;;;;26.50;14.80;;;19.20;99.90;;;;;;4968320;28;20539;-57
2023/05/02 11:21:47;;;;;;;27.23;14.07;;;19.80;99.90;;;;;;4969799;28;20483;-58
2023/05/02 11:24:41;;;;;;;27.17;14.38;;;20.10;99.90;;;;;;4963358;28;20414;-55
2023/05/02 11:27:30;;;;;;;25.38;14.00;;;20.30;99.90;;;;;;4969205;28;20502;-55
2023/05/02 11:30:08;;;;;;;25.23;13.57;;;19.50;99.90;;;;;;4958013;28;20430;-57
2023/05/02 11:32:52;;;;;;;26.08;14.40;;;19.90;99.90;;;;;;4968910;28;20412;-57
2023/05/02 11:35:22;;;;;;;25.63;13.73;;;20.00;99.90;;;;;;4967825;28;20388;-56
2023/05/02 11:37:54;;;;;;;28.73;14.63;;;19.90;99.90;;;;;;4966905;28;20420;-57
2023/05/02 11:40:20;;;;;;;26.25;13.15;;;20.00;99.90;;;;;;4970168;28;20479;-57
2023/05/02 11:42:46;;;;;;;24.50;13.20;;;20.00;99.90;;;;;;4969714;28;20862;-58
2023/05/02 11:45:12;;;;;;;23.05;12.43;;;20.20;99.90;;;;;;4970269;28;20419;-56
2023/05/02 11:47:40;;;;;;;24.50;13.00;;;20.80;99.90;;;;;;4970125;28;20411;-57
2023/05/02 11:50:06;;;;;;;24.40;11.97;;;21.30;99.90;;;;;;4966734;28;20404;-57
2023/05/02 11:52:40;;;;;;;26.40;13.75;;;20.70;99.90;;;;;;4970353;28;20411;-57
2023/05/02 11:55:10;;;;;;;24.25;12.20;;;19.90;99.90;;;;;;4970082;28;20396;-56
2023/05/02 11:57:36;;;;;;;22.20;11.00;;;19.20;99.90;;;;;;4970580;28;20439;-56
2023/05/02 12:00:04;;;;;;;22.92;11.70;;;19.30;99.90;;;;;;4969440;28;20637;-57
2023/05/02 12:02:39;;;;;;;21.85;11.23;;;19.40;99.90;;;;;;4970612;28;20503;-57
2023/05/02 12:05:05;;;;;;;21.83;11.43;;;19.40;99.90;;;;;;4969540;28;20423;-57
2023/05/02 12:07:45;;;;;;;25.08;12.40;;;19.30;99.90;;;;;;4970709;28;20385;-57
2023/05/02 12:10:12;;;;;;;26.27;13.43;;;19.40;99.90;;;;;;4970169;28;20771;-56
2023/05/02 12:12:39;;;;;;;26.35;13.43;;;19.30;99.90;;;;;;4970134;28;20400;-56
2023/05/02 12:15:06;;;;;;;24.75;13.02;;;19.10;99.90;;;;;;4969791;28;21282;-56
2023/05/02 12:17:38;;;;;;;26.20;13.27;;;19.00;99.90;;;;;;4970417;28;20396;-55
2023/05/02 12:20:07;;;;;;;22.83;12.25;;;18.70;99.90;;;;;;4969634;28;20408;-55
2023/05/02 12:22:33;;;;;;;22.15;12.05;;;18.80;99.90;;;;;;4950681;28;21014;-56
2023/05/02 12:24:59;;;;;;;24.35;13.35;;;19.00;99.90;;;;;;4959295;28;20389;-56
2023/05/02 12:27:26;;;;;;;23.75;12.48;;;19.00;99.90;;;;;;4951129;29;20501;-55
2023/05/02 12:29:52;;;;;;;23.42;11.90;;;18.90;99.90;;;;;;4949976;29;20954;-56
2023/05/02 12:32:32;;;;;;;26.60;13.60;;;18.80;99.90;;;;;;4961024;28;20376;-56
2023/05/02 12:34:58;;;;;;;22.55;11.82;;;18.60;99.90;;;;;;4969528;28;20388;-56
2023/05/02 12:37:25;;;;;;;21.52;11.43;;;18.80;99.90;;;;;;4970210;28;20388;-56
2023/05/02 12:39:52;;;;;;;22.35;12.38;;;19.20;99.90;;;;;;4959890;28;20393;-56
2023/05/02 12:42:20;;;;;;;21.75;11.00;;;19.50;99.90;;;;;;4951290;29;20433;-56
2023/05/02 12:44:47;;;;;;;22.63;12.05;;;20.00;99.90;;;;;;4951144;28;20488;-56
2023/05/02 12:47:14;;;;;;;23.30;11.30;;;20.30;99.90;;;;;;4955566;28;20459;-56